Time;durP1;ratioP1;P1;durP2;ratioP2;P2;SDS_P1;SDS_P2;PMS_P1;PMS_P2;Temp;Humidity;BMP_temperature;BMP_pressure;BME280_temperature;BME280_humidity;BME280_pressure;Samples;Min_cycle;Max_cycle;Signal;HPM_P1;HPM_P2
2022/07/26 00:00:01;;;;;;;;;1.50;1.00;;;;;23.62;46.01;101309.34;5024534;28;47314;-62
2022/07/26 00:02:26;;;;;;;;;0.25;0.00;;;;;23.64;46.37;101317.41;5020899;28;45304;-62
2022/07/26 00:04:52;;;;;;;;;1.00;1.00;;;;;23.58;46.16;101316.00;5021065;28;45434;-62
2022/07/26 00:07:17;;;;;;;;;1.25;0.25;;;;;23.59;46.18;101322.31;5021722;28;45325;-61
2022/07/26 00:09:42;;;;;;;;;1.00;1.00;;;;;23.61;46.54;101318.50;5021387;28;45415;-61
2022/07/26 00:12:08;;;;;;;;;1.00;1.00;;;;;23.55;46.44;101309.94;5021639;28;45335;-61
2022/07/26 00:14:34;;;;;;;;;1.00;1.00;;;;;23.53;46.45;101320.94;5021812;28;45485;-61
2022/07/26 00:17:00;;;;;;;;;2.25;0.25;;;;;23.50;46.45;101315.72;5021556;28;45202;-61
2022/07/26 00:19:25;;;;;;;;;1.50;0.00;;;;;23.48;46.59;101315.00;5023490;28;47082;-61
2022/07/26 00:22:32;;;;;;;;;0.25;0.25;;;;;23.47;46.77;101315.97;5021342;28;45445;-61
2022/07/26 00:24:36;;;;;;;;;1.00;1.00;;;;;23.47;47.00;101326.84;5019322;28;45344;-61
2022/07/26 00:27:01;;;;;;;;;0.75;0.75;;;;;23.46;46.52;101333.31;5021277;28;45310;-61
2022/07/26 00:29:27;;;;;;;;;0.50;0.50;;;;;23.43;46.54;101328.97;5021245;28;45237;-61
2022/07/26 00:31:52;;;;;;;;;0.25;0.25;;;;;23.38;46.82;101319.41;5021622;28;45293;-61
2022/07/26 00:34:17;;;;;;;;;1.25;1.00;;;;;23.38;47.04;101331.19;5021529;28;45134;-61
2022/07/26 00:36:43;;;;;;;;;0.00;0.00;;;;;23.35;46.64;101325.09;5020241;28;45507;-61
2022/07/26 00:39:08;;;;;;;;;0.00;0.00;;;;;23.32;46.59;101323.47;5020954;28;46103;-61
2022/07/26 00:41:34;;;;;;;;;0.00;0.00;;;;;23.31;46.61;101333.50;5020869;28;45386;-61
2022/07/26 00:44:00;;;;;;;;;1.00;1.00;;;;;23.32;46.44;101326.19;5021327;28;45637;-61
2022/07/26 00:46:26;;;;;;;;;1.00;0.00;;;;;23.32;46.50;101323.47;5021432;28;45534;-61
2022/07/26 00:48:51;;;;;;;;;0.00;0.00;;;;;23.31;46.77;101325.31;5018039;28;45329;-61
2022/07/26 00:51:17;;;;;;;;;0.50;0.00;;;;;23.33;46.72;101330.66;5013003;28;45403;-61
2022/07/26 00:53:44;;;;;;;;;0.00;0.00;;;;;23.28;46.71;101316.53;5020726;28;45319;-62
2022/07/26 00:56:09;;;;;;;;;0.25;0.00;;;;;23.24;47.06;101324.06;5021277;28;45351;-61
2022/07/26 00:58:34;;;;;;;;;0.00;0.00;;;;;23.25;46.91;101330.38;5020837;28;45303;-61
2022/07/26 01:01:00;;;;;;;;;1.50;0.00;;;;;23.25;46.89;101328.50;5021356;28;45251;-61
2022/07/26 01:03:25;;;;;;;;;0.00;0.00;;;;;23.18;46.79;101316.38;5020972;28;45499;-61
2022/07/26 01:05:51;;;;;;;;;2.50;1.00;;;;;23.14;46.95;101317.59;5021006;28;45249;-61
2022/07/26 01:08:16;;;;;;;;;2.00;2.00;;;;;23.17;46.71;101324.66;5020461;28;46708;-61
2022/07/26 01:10:42;;;;;;;;;0.25;0.00;;;;;23.13;47.39;101321.28;5020755;28;45339;-62
2022/07/26 01:13:08;;;;;;;;;0.25;0.00;;;;;23.09;47.06;101317.94;5020849;28;45623;-61
2022/07/26 01:15:33;;;;;;;;;0.75;0.75;;;;;23.03;46.97;101312.94;5020890;28;45491;-61
2022/07/26 01:17:59;;;;;;;;;1.00;1.00;;;;;23.05;47.26;101312.81;5019566;28;46266;-61
2022/07/26 01:20:24;;;;;;;;;0.00;0.00;;;;;23.00;47.24;101315.00;5019686;28;45353;-61
2022/07/26 01:22:49;;;;;;;;;1.00;0.50;;;;;23.00;47.03;101315.88;5020036;28;45390;-61
2022/07/26 01:25:15;;;;;;;;;0.00;0.00;;;;;23.00;47.35;101313.16;5019394;28;45259;-61
2022/07/26 01:27:41;;;;;;;;;0.00;0.00;;;;;23.00;47.44;101317.75;5019477;28;46238;-61
2022/07/26 01:30:10;;;;;;;;;1.50;1.00;;;;;22.98;47.60;101320.56;5020816;28;45539;-61
2022/07/26 01:32:36;;;;;;;;;1.00;1.00;;;;;22.96;47.59;101313.53;5020325;28;45194;-61
2022/07/26 01:35:02;;;;;;;;;0.00;0.00;;;;;22.96;47.70;101321.69;5007576;28;45498;-61
2022/07/26 01:37:28;;;;;;;;;2.00;1.00;;;;;22.81;48.34;101294.63;5018302;28;46294;-61
2022/07/26 01:39:53;;;;;;;;;0.00;0.00;;;;;22.90;48.01;101313.00;5019745;28;45377;-61
2022/07/26 01:42:18;;;;;;;;;0.00;0.00;;;;;22.88;47.48;101314.09;5019861;28;47509;-61
2022/07/26 01:44:44;;;;;;;;;0.00;0.00;;;;;22.89;47.76;101305.81;5020515;28;45358;-61
2022/07/26 01:47:09;;;;;;;;;0.00;0.00;;;;;22.86;48.06;101305.19;5017871;28;49087;-61
2022/07/26 01:49:34;;;;;;;;;0.75;0.75;;;;;22.87;47.69;101313.22;5015229;28;45475;-61
2022/07/26 01:52:00;;;;;;;;;2.00;0.00;;;;;22.86;48.13;101311.47;5019900;28;45320;-61
2022/07/26 01:54:25;;;;;;;;;0.50;0.50;;;;;22.82;47.98;101299.09;5019226;28;45253;-61
2022/07/26 01:56:50;;;;;;;;;0.75;0.00;;;;;22.87;47.65;101313.22;5019959;28;45411;-61
2022/07/26 01:59:16;;;;;;;;;0.00;0.00;;;;;22.84;47.78;101302.56;5018882;28;45444;-61
2022/07/26 02:01:41;;;;;;;;;3.00;0.00;;;;;22.81;47.68;101305.53;5020077;28;45307;-61
2022/07/26 02:04:57;;;;;;;;;0.00;0.00;;;;;22.87;47.69;101307.78;5020268;28;45318;-61
2022/07/26 02:06:52;;;;;;;;;1.00;1.00;;;;;22.86;47.92;101311.47;5019772;28;45411;-61
2022/07/26 02:09:18;;;;;;;;;0.75;0.00;;;;;22.83;48.11;101306.28;5019476;28;46267;-61
2022/07/26 02:11:43;;;;;;;;;0.25;0.25;;;;;22.81;47.81;101302.81;5019867;28;45204;-61
2022/07/26 02:14:08;;;;;;;;;0.00;0.00;;;;;22.85;47.65;101307.00;5019962;28;45176;-61
2022/07/26 02:16:34;;;;;;;;;0.00;0.00;;;;;22.88;48.31;101306.78;5018610;28;57914;-61
2022/07/26 02:18:59;;;;;;;;;2.00;1.00;;;;;22.86;47.81;101313.34;5019615;28;45381;-61
2022/07/26 02:21:24;;;;;;;;;1.00;1.00;;;;;22.85;48.17;101309.72;5019808;28;45237;-61
2022/07/26 02:23:50;;;;;;;;;0.00;0.00;;;;;22.85;48.18;101317.91;5016205;28;45462;-61
2022/07/26 02:26:15;;;;;;;;;0.50;0.50;;;;;22.78;48.49;101299.44;5019471;28;46619;-61
2022/07/26 02:28:40;;;;;;;;;0.75;0.75;;;;;22.85;48.38;101314.31;5019505;28;45485;-61
2022/07/26 02:31:06;;;;;;;;;0.25;0.25;;;;;22.82;48.35;101310.00;5018886;28;45818;-61
2022/07/26 02:33:31;;;;;;;;;0.25;0.25;;;;;22.80;48.48;101306.50;5018835;28;45598;-62
2022/07/26 02:35:56;;;;;;;;;0.75;0.50;;;;;22.81;48.60;101307.38;5019345;28;45310;-61
2022/07/26 02:38:22;;;;;;;;;3.00;0.00;;;;;22.79;48.57;101314.78;5022816;28;45415;-61
2022/07/26 02:40:49;;;;;;;;;0.00;0.00;;;;;22.76;48.81;101321.31;5023442;28;45508;-61
2022/07/26 02:43:14;;;;;;;;;0.00;0.00;;;;;22.73;48.32;101310.66;5022429;28;45330;-61
2022/07/26 02:45:39;;;;;;;;;1.00;1.00;;;;;22.74;49.05;101318.72;5023147;28;45454;-61
2022/07/26 02:48:06;;;;;;;;;1.00;1.00;;;;;22.74;48.68;101318.72;5022733;28;45414;-61
2022/07/26 02:50:31;;;;;;;;;3.00;0.00;;;;;22.76;48.49;101315.88;5019027;28;45430;-61
2022/07/26 02:52:57;;;;;;;;;2.00;0.75;;;;;22.74;49.13;101318.72;5022552;28;45506;-61
2022/07/26 02:55:24;;;;;;;;;1.00;1.00;;;;;22.72;49.02;101315.25;5022494;28;45347;-62
2022/07/26 02:57:50;;;;;;;;;0.00;0.00;;;;;22.72;49.17;101320.69;5023009;28;45434;-61
2022/07/26 03:00:19;;;;;;;;;0.50;0.50;;;;;22.66;49.01;101317.56;5021994;28;45242;-61
2022/07/26 03:02:44;;;;;;;;;0.75;0.25;;;;;22.66;49.28;101321.13;5022703;28;45303;-61
2022/07/26 03:05:10;;;;;;;;;0.00;0.00;;;;;22.64;49.23;101319.53;5022400;28;45323;-61
2022/07/26 03:07:35;;;;;;;;;0.00;0.00;;;;;22.59;49.30;101322.59;5021448;28;45390;-61
2022/07/26 03:10:01;;;;;;;;;0.00;0.00;;;;;22.56;49.11;101322.81;5022739;28;45510;-61
2022/07/26 03:12:26;;;;;;;;;1.00;1.00;;;;;22.50;49.33;101313.25;5022501;28;45332;-61
2022/07/26 03:14:52;;;;;;;;;1.75;1.00;;;;;22.49;49.34;101316.97;5022421;28;45221;-61
2022/07/26 03:17:17;;;;;;;;;0.00;0.00;;;;;22.51;49.72;101328.59;5022710;28;45310;-61
2022/07/26 03:19:43;;;;;;;;;0.50;0.50;;;;;22.42;49.91;101317.50;5022173;28;45186;-61
2022/07/26 03:22:10;;;;;;;;;1.00;1.00;;;;;22.43;49.87;101327.41;5022584;28;45209;-61
2022/07/26 03:24:35;;;;;;;;;0.00;0.00;;;;;22.42;50.20;101328.38;5021550;28;46380;-61
2022/07/26 03:27:00;;;;;;;;;0.25;0.25;;;;;22.37;50.01;101326.03;5022427;28;45371;-61
2022/07/26 03:29:26;;;;;;;;;0.75;0.00;;;;;22.39;50.19;101330.34;5022015;28;45317;-61
2022/07/26 03:31:51;;;;;;;;;1.00;1.00;;;;;22.37;49.92;101331.47;5019792;28;45388;-61
2022/07/26 03:34:17;;;;;;;;;0.00;0.00;;;;;22.36;49.77;101325.13;5021631;28;45154;-61
2022/07/26 03:36:45;;;;;;;;;2.25;1.00;;;;;22.33;50.21;101325.34;5022081;28;45307;-61
2022/07/26 03:39:10;;;;;;;;;1.00;1.00;;;;;22.34;50.42;101326.25;5022158;28;45376;-61
2022/07/26 03:41:36;;;;;;;;;0.25;0.25;;;;;22.32;50.57;101331.78;5022155;28;45368;-61
2022/07/26 03:44:01;;;;;;;;;0.00;0.00;;;;;22.32;49.98;101339.06;5021677;28;45532;-61
2022/07/26 03:46:27;;;;;;;;;0.00;0.00;;;;;22.33;50.21;101338.09;5022365;28;45300;-61
2022/07/26 03:48:52;;;;;;;;;1.00;1.00;;;;;22.29;50.44;101332.00;5017336;28;45292;-61
2022/07/26 03:51:17;;;;;;;;;2.25;1.00;;;;;22.27;50.80;101339.38;5021967;28;45304;-61
2022/07/26 03:53:43;;;;;;;;;1.50;1.50;;;;;22.27;50.73;101333.94;5021554;28;45520;-61
2022/07/26 03:58:52;;;;;;;;;0.00;0.00;;;;;22.27;50.45;101339.38;5021958;28;45324;-61
2022/07/26 04:01:17;;;;;;;;;1.00;1.00;;;;;22.29;50.45;101342.03;5021017;28;45311;-61
2022/07/26 04:03:43;;;;;;;;;2.75;1.00;;;;;22.25;50.90;101337.75;5021178;28;45442;-61
2022/07/26 04:06:09;;;;;;;;;1.50;0.00;;;;;22.23;50.41;101331.56;5021704;28;45630;-61
2022/07/26 04:08:34;;;;;;;;;2.50;1.00;;;;;22.26;50.88;101345.78;5021819;28;45341;-62
2022/07/26 04:10:59;;;;;;;;;1.00;1.00;;;;;22.26;50.83;101348.50;5020661;28;45394;-61
2022/07/26 04:13:25;;;;;;;;;2.75;1.25;;;;;22.27;50.79;101346.66;5021537;28;46177;-61
2022/07/26 04:15:50;;;;;;;;;1.00;1.00;;;;;22.24;50.78;101345.03;5021761;28;45240;-61
2022/07/26 04:18:15;;;;;;;;;1.00;1.00;;;;;22.24;51.18;101338.75;5020525;28;45325;-62
2022/07/26 04:20:42;;;;;;;;;1.00;1.00;;;;;22.27;51.25;101343.94;5017232;28;45307;-61
2022/07/26 04:23:08;;;;;;;;;1.50;1.50;;;;;22.24;51.21;101338.75;5020368;28;46491;-61
2022/07/26 04:25:33;;;;;;;;;3.75;2.00;;;;;22.27;50.90;101343.94;5021362;28;45676;-61
2022/07/26 04:28:02;;;;;;;;;1.25;1.25;;;;;22.19;50.86;101322.75;5021243;28;45300;-61
2022/07/26 04:30:27;;;;;;;;;0.25;0.25;;;;;22.25;51.31;101344.03;5036770;28;45631;-62
2022/07/26 04:32:53;;;;;;;;;1.50;0.75;;;;;22.28;50.72;101343.84;5021100;28;46025;-61
2022/07/26 04:35:18;;;;;;;;;3.25;1.50;;;;;22.30;51.58;101344.63;5020843;28;45241;-61
2022/07/26 04:37:44;;;;;;;;;0.00;0.00;;;;;22.28;51.31;101341.13;5021619;28;45233;-61
2022/07/26 04:40:14;;;;;;;;;1.00;1.00;;;;;22.30;51.08;101341.91;5021177;28;45154;-61
2022/07/26 04:42:39;;;;;;;;;1.75;1.75;;;;;22.32;51.38;101344.50;5036371;28;47359;-61
2022/07/26 04:45:05;;;;;;;;;1.75;1.75;;;;;22.33;51.42;101347.13;5021111;28;45252;-61
2022/07/26 04:47:30;;;;;;;;;3.00;1.50;;;;;22.31;51.89;101351.81;5021275;28;45296;-61
2022/07/26 04:49:56;;;;;;;;;1.00;1.00;;;;;22.29;51.76;101345.59;5017912;28;47189;-61
2022/07/26 04:52:21;;;;;;;;;1.25;1.25;;;;;22.29;51.72;101348.31;5018054;28;47897;-61
2022/07/26 04:54:46;;;;;;;;;2.00;2.00;;;;;22.29;51.48;101351.03;5021171;28;45441;-61
2022/07/26 04:57:12;;;;;;;;;1.75;1.75;;;;;22.28;52.07;101351.13;5020967;28;45300;-61
2022/07/26 04:59:37;;;;;;;;;1.25;1.25;;;;;22.29;51.34;101358.34;5020185;28;45309;-61
2022/07/26 05:02:02;;;;;;;;;0.75;0.75;;;;;22.29;51.95;101359.22;5019745;28;46261;-61
2022/07/26 05:04:28;;;;;;;;;2.00;1.00;;;;;22.32;51.93;101359.00;5019142;28;45332;-62
2022/07/26 05:06:53;;;;;;;;;1.00;1.00;;;;;22.33;51.66;101363.44;5020936;28;45384;-61
2022/07/26 05:09:18;;;;;;;;;1.00;1.00;;;;;22.33;51.69;101357.13;5020879;28;45402;-61
2022/07/26 05:11:44;;;;;;;;;3.00;1.25;;;;;22.32;52.01;101361.72;5020587;28;45320;-61
2022/07/26 05:14:09;;;;;;;;;1.50;0.50;;;;;22.38;52.27;101369.41;5018687;28;51970;-61
2022/07/26 05:16:34;;;;;;;;;2.00;2.00;;;;;22.37;51.69;101359.53;5020674;28;45295;-61
2022/07/26 05:18:59;;;;;;;;;2.00;1.00;;;;;22.37;51.55;101370.41;5025576;28;49937;-61
2022/07/26 05:21:26;;;;;;;;;3.00;2.75;;;;;22.33;52.23;101366.16;5020288;28;45386;-61
2022/07/26 05:23:52;;;;;;;;;1.00;1.00;;;;;22.34;51.99;101370.63;5019681;28;45434;-61
2022/07/26 05:26:18;;;;;;;;;3.00;1.00;;;;;22.41;51.74;101379.22;5020257;28;45484;-61
2022/07/26 05:28:43;;;;;;;;;1.75;1.75;;;;;22.35;52.15;101366.94;5019536;28;45312;-61
2022/07/26 05:31:08;;;;;;;;;2.75;1.50;;;;;22.44;51.84;101378.13;5019729;28;45559;-61
2022/07/26 05:33:34;;;;;;;;;2.00;1.50;;;;;22.44;52.39;101380.84;5019844;28;45418;-61
2022/07/26 05:35:59;;;;;;;;;4.00;2.75;;;;;22.44;51.75;101379.00;5020303;28;45411;-61
2022/07/26 05:38:24;;;;;;;;;2.00;2.00;;;;;22.44;52.20;101386.28;5020264;28;45375;-61
2022/07/26 05:40:50;;;;;;;;;2.00;2.00;;;;;22.44;51.99;101398.03;5019672;28;47346;-61
2022/07/26 05:43:15;;;;;;;;;3.25;2.75;;;;;22.40;52.34;101377.44;5020125;28;45479;-61
2022/07/26 05:45:41;;;;;;;;;2.00;1.00;;;;;22.44;52.35;101384.44;5020074;28;45489;-61
2022/07/26 05:48:06;;;;;;;;;5.75;2.75;;;;;22.41;52.34;101376.47;5019922;28;45555;-61
2022/07/26 05:50:31;;;;;;;;;1.00;1.00;;;;;22.43;52.00;101379.09;5015818;28;45336;-62
2022/07/26 05:52:57;;;;;;;;;3.25;1.75;;;;;22.41;51.93;101365.59;5019748;28;45237;-61
2022/07/26 05:55:22;;;;;;;;;4.00;2.00;;;;;22.47;51.98;101378.78;5019764;28;45365;-61
2022/07/26 05:57:47;;;;;;;;;1.50;1.00;;;;;22.45;52.20;101383.44;5019839;28;45506;-61
2022/07/26 06:00:28;;;;;;;;;1.75;1.75;;;;;22.47;51.89;101381.50;4998063;28;45453;-61
2022/07/26 06:02:53;;;;;;;;;4.25;2.00;;;;;22.48;52.33;101387.78;5019948;28;45591;-61
2022/07/26 06:05:19;;;;;;;;;2.50;1.00;;;;;22.49;52.48;101386.81;5019913;28;45312;-61
2022/07/26 06:07:44;;;;;;;;;2.75;2.00;;;;;22.51;51.87;101388.44;5019797;28;45438;-61
2022/07/26 06:10:10;;;;;;;;;2.75;2.00;;;;;22.53;52.04;101388.31;5019858;28;46002;-61
2022/07/26 06:12:35;;;;;;;;;3.00;2.25;;;;;22.51;52.39;101391.16;5019596;28;45308;-61
2022/07/26 06:15:01;;;;;;;;;3.25;1.50;;;;;22.53;52.23;101386.47;5020144;28;45491;-61
2022/07/26 06:17:28;;;;;;;;;3.00;2.00;;;;;22.55;52.17;101399.97;5019892;28;45435;-61
2022/07/26 06:19:54;;;;;;;;;1.75;1.75;;;;;22.56;51.75;101405.28;5019737;28;46357;-61
2022/07/26 06:22:20;;;;;;;;;2.75;2.75;;;;;22.52;52.08;101395.63;5019400;28;45714;-61
2022/07/26 06:24:45;;;;;;;;;4.75;3.00;;;;;22.54;52.31;101396.38;5017758;28;45623;-62
2022/07/26 06:27:10;;;;;;;;;2.00;2.00;;;;;22.56;52.36;101409.88;5016552;28;45437;-61
2022/07/26 06:29:36;;;;;;;;;2.00;2.00;;;;;22.56;52.43;101405.28;5018116;28;46104;-61
2022/07/26 06:32:01;;;;;;;;;3.25;1.75;;;;;22.56;52.26;101401.72;5008271;28;45486;-62
2022/07/26 06:34:27;;;;;;;;;1.50;1.50;;;;;22.52;52.11;101403.78;5012722;28;45826;-62
2022/07/26 06:36:52;;;;;;;;;2.50;2.00;;;;;22.52;52.55;101402.91;5017321;28;45142;-61
2022/07/26 06:39:18;;;;;;;;;2.75;2.00;;;;;22.53;52.28;101402.78;5019279;28;46313;-62
2022/07/26 06:41:43;;;;;;;;;2.00;1.00;;;;;22.58;52.07;101410.63;5018029;28;45352;-61
2022/07/26 06:44:08;;;;;;;;;2.50;2.00;;;;;22.58;52.51;101403.31;5018031;28;45501;-62
2022/07/26 06:46:34;;;;;;;;;6.00;2.00;;;;;22.57;52.37;101408.91;5017941;28;45411;-62
2022/07/26 06:49:00;;;;;;;;;2.25;2.25;;;;;22.58;52.21;101414.19;5014890;28;46199;-61
2022/07/26 06:51:25;;;;;;;;;2.00;1.75;;;;;22.55;52.09;101406.28;5012132;28;45462;-61
2022/07/26 06:53:51;;;;;;;;;3.00;2.00;;;;;22.60;52.66;101411.38;5017196;28;45513;-61
2022/07/26 06:56:17;;;;;;;;;3.00;2.50;;;;;22.62;52.38;101414.88;5019313;28;45494;-61
2022/07/26 06:58:43;;;;;;;;;1.00;1.00;;;;;22.63;52.24;101418.47;5017447;28;45383;-62
2022/07/26 07:01:08;;;;;;;;;1.75;1.75;;;;;22.62;52.81;101414.88;5014499;28;45504;-62
2022/07/26 07:03:34;;;;;;;;;3.75;3.00;;;;;22.61;53.17;101412.25;5017676;28;46378;-62
2022/07/26 07:05:59;;;;;;;;;2.75;2.00;;;;;22.61;52.66;101414.97;5002623;28;45349;-62
2022/07/26 07:08:24;;;;;;;;;2.00;2.00;;;;;22.63;53.04;101415.75;5016459;28;46407;-62
2022/07/26 07:10:51;;;;;;;;;2.75;2.25;;;;;22.64;52.49;101425.66;5014453;28;45537;-62
2022/07/26 07:13:17;;;;;;;;;2.00;2.00;;;;;22.59;52.58;101412.38;5013442;28;45285;-62
2022/07/26 07:15:42;;;;;;;;;2.00;2.00;;;;;22.65;52.37;101416.50;5017826;28;45490;-62
2022/07/26 07:18:08;;;;;;;;;1.75;1.75;;;;;22.62;52.80;101417.59;5016875;28;45371;-62
2022/07/26 07:20:33;;;;;;;;;3.50;2.00;;;;;22.67;53.00;101425.41;5016678;28;45649;-62
2022/07/26 07:22:59;;;;;;;;;2.25;2.25;;;;;22.62;52.95;101416.72;5017606;28;45407;-62
2022/07/26 07:25:24;;;;;;;;;1.00;1.00;;;;;22.66;53.03;101426.41;5019962;28;45574;-62
2022/07/26 07:27:50;;;;;;;;;2.00;2.00;;;;;22.63;52.60;101429.34;5020755;28;46292;-62
2022/07/26 07:30:16;;;;;;;;;2.75;2.25;;;;;22.61;53.18;101426.72;5021164;28;45613;-62
2022/07/26 07:32:42;;;;;;;;;4.00;2.00;;;;;22.62;52.47;101430.31;5020451;28;46645;-62
2022/07/26 07:35:08;;;;;;;;;2.00;2.00;;;;;22.61;52.47;101425.88;5017560;28;46057;-62
2022/07/26 07:37:34;;;;;;;;;1.00;1.00;;;;;22.56;52.59;101435.22;5019384;28;47035;-62
2022/07/26 07:39:59;;;;;;;;;2.25;2.25;;;;;22.54;52.41;101420.88;5016941;28;45430;-62
2022/07/26 07:42:25;;;;;;;;;3.25;3.00;;;;;22.57;52.43;101425.22;5006770;28;45549;-62
2022/07/26 07:44:50;;;;;;;;;3.50;2.75;;;;;22.56;52.38;101418.03;5017575;28;45288;-62
2022/07/26 07:47:16;;;;;;;;;2.50;2.00;;;;;22.54;52.84;101420.00;5017012;28;45420;-62
2022/07/26 07:49:42;;;;;;;;;2.25;2.25;;;;;22.61;52.77;101431.31;5010500;28;45814;-62
2022/07/26 07:52:07;;;;;;;;;3.50;3.25;;;;;22.64;53.10;101431.09;5017071;28;45399;-62
2022/07/26 07:54:32;;;;;;;;;5.00;5.00;;;;;22.66;52.61;101424.53;5016096;28;45395;-62
2022/07/26 07:56:58;;;;;;;;;3.25;2.50;;;;;22.57;52.20;101415.19;5019582;28;46127;-62
2022/07/26 07:59:23;;;;;;;;;2.00;1.25;;;;;22.68;52.28;101428.00;5017399;28;45998;-62
2022/07/26 08:01:49;;;;;;;;;8.00;3.00;;;;;22.71;52.61;101430.53;5018166;28;46382;-62
2022/07/26 08:04:14;;;;;;;;;1.75;1.50;;;;;22.69;52.70;101437.06;5017744;28;45352;-62
2022/07/26 08:06:40;;;;;;;;;5.75;3.50;;;;;22.70;52.46;101436.06;5016633;28;46264;-62
2022/07/26 08:09:05;;;;;;;;;3.50;2.00;;;;;22.63;52.44;101424.75;5018422;28;45363;-62
2022/07/26 08:11:31;;;;;;;;;2.50;2.50;;;;;22.69;51.98;101437.06;5019860;28;45384;-62
2022/07/26 08:13:56;;;;;;;;;2.00;2.00;;;;;22.72;52.65;101440.44;5017131;28;45443;-62
2022/07/26 08:16:22;;;;;;;;;4.25;2.00;;;;;22.70;52.69;101434.25;5020109;28;46565;-62
2022/07/26 08:18:47;;;;;;;;;3.25;2.50;;;;;22.69;52.00;101439.78;5018869;28;45655;-62
2022/07/26 08:21:12;;;;;;;;;0.00;0.00;;;;;22.68;52.04;101438.03;5019426;28;45510;-62
2022/07/26 08:23:37;;;;;;;;;2.00;2.00;;;;;22.70;51.86;101441.50;5019039;28;45609;-62
2022/07/26 08:26:03;;;;;;;;;2.00;2.00;;;;;22.65;51.86;101432.81;5014722;28;45383;-62
2022/07/26 08:28:28;;;;;;;;;2.00;2.00;;;;;22.73;51.22;101435.84;5019890;28;45363;-61
2022/07/26 08:30:54;;;;;;;;;2.00;2.00;;;;;22.72;51.46;101436.81;5021084;28;45316;-63
2022/07/26 08:33:19;;;;;;;;;1.00;1.00;;;;;22.73;51.70;101444.00;5019608;28;45726;-63
2022/07/26 08:35:44;;;;;;;;;2.00;2.00;;;;;22.72;51.63;101444.97;5018831;28;45361;-63
2022/07/26 08:38:10;;;;;;;;;3.00;2.00;;;;;22.70;51.83;101442.41;5018064;28;45562;-63
2022/07/26 08:40:35;;;;;;;;;2.75;2.75;;;;;22.68;51.23;101436.19;5020039;28;45676;-63
2022/07/26 08:43:01;;;;;;;;;43.25;36.25;;;;;22.70;51.83;101436.06;5018955;28;45935;-63
2022/07/26 08:45:29;;;;;;;;;7.00;4.50;;;;;22.68;52.20;101444.34;5018673;28;47211;-63
2022/07/26 08:47:55;;;;;;;;;4.00;3.00;;;;;22.75;51.98;101452.94;5018080;28;45574;-63
2022/07/26 08:50:21;;;;;;;;;2.50;2.50;;;;;22.65;52.04;101439.13;5015088;28;45467;-63
2022/07/26 08:52:47;;;;;;;;;2.50;2.25;;;;;22.69;51.40;101446.09;5016924;28;45612;-63
2022/07/26 08:55:17;;;;;;;;;1.50;1.50;;;;;22.53;51.54;101413.66;5017674;28;48060;-63
2022/07/26 08:57:43;;;;;;;;;1.00;1.00;;;;;22.69;51.41;101446.09;5015924;28;46044;-63
2022/07/26 09:00:21;;;;;;;;;1.50;1.00;;;;;22.79;51.22;101456.28;5015202;28;45831;-63
2022/07/26 09:02:47;;;;;;;;;4.25;1.50;;;;;22.74;51.40;101446.63;5013804;28;45772;-63
2022/07/26 09:05:13;;;;;;;;;1.75;1.50;;;;;22.74;51.12;101446.63;5017651;28;46076;-63
2022/07/26 09:07:38;;;;;;;;;2.25;1.00;;;;;22.75;51.38;101445.66;5031632;28;45486;-63
2022/07/26 09:10:06;;;;;;;;;1.75;1.75;;;;;22.81;51.42;101454.34;5020402;28;45384;-63
2022/07/26 09:12:33;;;;;;;;;1.25;1.25;;;;;22.74;51.81;101451.22;5018503;28;45502;-63
2022/07/26 09:14:59;;;;;;;;;1.00;1.00;;;;;22.80;51.47;101471.66;5019087;28;46001;-63
2022/07/26 09:17:37;;;;;;;;;3.75;2.00;;;;;22.76;51.27;101469.16;5019922;28;45395;-63
2022/07/26 09:20:06;;;;;;;;;2.00;2.00;;;;;22.79;51.11;101476.25;5019964;28;45436;-63
2022/07/26 09:22:32;;;;;;;;;2.00;1.00;;;;;22.79;51.57;101478.97;5018289;28;45610;-63
2022/07/26 09:24:57;;;;;;;;;1.75;1.75;;;;;22.75;51.29;101464.72;5021175;28;46907;-63
2022/07/26 09:27:23;;;;;;;;;4.00;2.00;;;;;22.82;50.88;101472.41;5016746;28;45301;-63
2022/07/26 09:29:53;;;;;;;;;1.00;1.00;;;;;22.84;51.21;101465.03;5017920;28;45425;-63
2022/07/26 09:32:21;;;;;;;;;2.00;1.50;;;;;22.83;50.98;101477.75;5017616;28;45499;-63
2022/07/26 09:34:57;;;;;;;;;1.25;1.25;;;;;22.86;51.04;101466.63;5019148;28;45510;-62
2022/07/26 09:37:33;;;;;;;;;1.00;1.00;;;;;22.69;51.41;101440.66;5020017;28;45584;-63
2022/07/26 09:40:01;;;;;;;;;2.00;2.00;;;;;22.84;50.92;101479.50;5011433;28;45459;-63
2022/07/26 09:42:27;;;;;;;;;2.00;1.00;;;;;22.65;50.48;101443.69;5016028;28;45417;-63
2022/07/26 09:44:54;;;;;;;;;1.75;1.75;;;;;22.87;50.96;101482.00;5019350;28;46122;-63
2022/07/26 09:47:20;;;;;;;;;2.00;2.00;;;;;22.88;50.91;101478.28;5018721;28;45305;-63
2022/07/26 09:49:46;;;;;;;;;0.00;0.00;;;;;22.91;50.77;101479.91;5018926;28;45494;-63
2022/07/26 09:52:17;;;;;;;;;2.75;2.00;;;;;22.95;51.00;101486.88;5017873;28;45396;-63
2022/07/26 09:54:45;;;;;;;;;3.00;2.00;;;;;22.94;51.19;101482.41;5018372;28;45407;-63
2022/07/26 09:57:11;;;;;;;;;1.75;1.75;;;;;22.84;50.86;101462.31;5018029;28;45810;-63
2022/07/26 09:59:36;;;;;;;;;1.00;1.00;;;;;22.94;50.64;101477.84;5017681;28;45336;-63
2022/07/26 10:02:02;;;;;;;;;2.00;2.00;;;;;22.86;50.73;101468.50;5018217;28;45615;-63
2022/07/26 10:04:27;;;;;;;;;2.75;1.25;;;;;22.87;50.60;101476.56;5015244;28;47408;-63
2022/07/26 10:06:53;;;;;;;;;2.00;2.00;;;;;22.99;50.46;101485.69;5014187;28;45620;-63
2022/07/26 10:09:21;;;;;;;;;3.00;2.00;;;;;22.96;50.37;101485.91;5014208;28;45771;-63
2022/07/26 10:11:53;;;;;;;;;3.00;2.00;;;;;22.97;50.64;101484.03;5017810;28;45407;-63
2022/07/26 10:14:36;;;;;;;;;1.00;1.00;;;;;23.06;49.91;101487.00;5017091;28;45605;-63
2022/07/26 10:17:27;;;;;;;;;2.25;2.25;;;;;23.08;49.47;101489.59;5014178;28;45639;-63
2022/07/26 10:19:56;;;;;;;;;1.50;1.50;;;;;23.08;49.52;101489.59;5017338;28;45846;-63
2022/07/26 10:22:35;;;;;;;;;2.25;2.00;;;;;23.05;49.34;101478.91;5015144;28;45428;-63
2022/07/26 10:25:15;;;;;;;;;1.00;1.00;;;;;23.16;49.19;101489.91;5013542;28;45852;-63
2022/07/26 10:27:42;;;;;;;;;0.50;0.50;;;;;23.17;48.94;101494.38;5017324;28;45539;-63
2022/07/26 10:30:23;;;;;;;;;1.00;1.00;;;;;23.20;48.30;101493.28;5016098;28;45339;-63
2022/07/26 10:33:10;;;;;;;;;1.00;1.00;;;;;23.17;48.36;101488.94;5013228;28;45520;-63
2022/07/26 10:35:37;;;;;;;;;1.00;1.00;;;;;23.20;48.06;101494.13;5006080;28;47101;-63
2022/07/26 10:38:06;;;;;;;;;2.00;2.00;;;;;23.21;48.38;101492.31;5017939;28;45289;-63
2022/07/26 10:40:31;;;;;;;;;2.00;2.00;;;;;23.10;48.33;101471.28;5012774;28;45517;-63
2022/07/26 10:43:10;;;;;;;;;0.25;0.25;;;;;23.18;48.18;101487.94;5010812;28;45656;-63
2022/07/26 10:45:37;;;;;;;;;0.50;0.50;;;;;23.11;47.42;101476.63;5030515;28;46855;-63
2022/07/26 10:48:14;;;;;;;;;1.75;1.75;;;;;23.23;47.64;101493.91;5015623;28;45562;-63
2022/07/26 10:50:47;;;;;;;;;2.00;1.75;;;;;23.13;47.81;101471.94;5016625;28;45883;-63
2022/07/26 10:53:19;;;;;;;;;2.00;2.00;;;;;23.23;47.57;101483.00;5016011;28;45474;-63
2022/07/26 10:55:51;;;;;;;;;1.00;0.50;;;;;23.26;47.08;101490.97;5015298;28;47534;-63
2022/07/26 10:58:17;;;;;;;;;1.00;1.00;;;;;23.26;47.19;101493.69;5018832;28;45514;-63
2022/07/26 11:01:00;;;;;;;;;1.75;1.75;;;;;23.08;47.30;101452.34;5020358;28;45365;-63
2022/07/26 11:03:36;;;;;;;;;0.75;0.75;;;;;23.23;46.71;101476.72;5009738;28;45412;-63
2022/07/26 11:06:15;;;;;;;;;1.00;1.00;;;;;23.25;46.46;101478.31;5020911;28;45477;-63
2022/07/26 11:08:43;;;;;;;;;1.50;1.50;;;;;23.23;46.20;101463.09;5021150;28;45399;-63
2022/07/26 11:11:09;;;;;;;;;1.25;1.25;;;;;23.39;45.00;101480.03;5019176;28;45344;-63
2022/07/26 11:13:36;;;;;;;;;0.50;0.50;;;;;23.33;44.57;101463.28;5021027;28;45348;-63
2022/07/26 11:16:03;;;;;;;;;1.00;1.00;;;;;23.37;44.39;101471.13;5018552;28;46501;-63
2022/07/26 11:18:34;;;;;;;;;0.00;0.00;;;;;23.44;45.02;101474.25;5021405;28;45347;-63
2022/07/26 11:21:11;;;;;;;;;2.00;2.00;;;;;23.41;44.60;101469.03;5018759;28;45466;-63
2022/07/26 11:23:38;;;;;;;;;2.25;1.50;;;;;23.48;44.99;101475.75;5020779;28;45444;-63